Time;durP1;ratioP1;P1;durP2;ratioP2;P2;SDS_P1;SDS_P2;PMS_P1;PMS_P2;Temp;Humidity;BMP_temperature;BMP_pressure;BME280_temperature;BME280_humidity;BME280_pressure;Samples;Min_cycle;Max_cycle;Signal;HPM_P1;HPM_P2
2023/05/24 00:02:07;;;;;;;6.27;5.67;;;;;;;15.20;63.14;96378.72;5029762;28;20413;-68
2023/05/24 00:04:32;;;;;;;7.30;5.87;;;;;;;15.16;63.31;96377.19;5029314;28;20863;-68
2023/05/24 00:07:02;;;;;;;10.60;6.27;;;;;;;14.94;63.95;96375.06;5029869;28;20199;-69
2023/05/24 00:09:30;;;;;;;8.73;6.23;;;;;;;15.21;63.24;96376.91;5029408;28;20278;-69
2023/05/24 00:11:56;;;;;;;8.43;5.97;;;;;;;15.27;62.81;96370.41;5029711;28;20416;-69
2023/05/24 00:14:22;;;;;;;9.93;5.93;;;;;;;15.43;62.63;96379.06;5029154;28;20943;-68
2023/05/24 00:16:47;;;;;;;6.63;5.70;;;;;;;14.94;64.30;96374.22;5029299;28;20746;-69
2023/05/24 00:19:17;;;;;;;11.07;7.07;;;;;;;15.15;63.61;96378.16;5028603;28;20178;-70
2023/05/24 00:21:45;;;;;;;7.00;6.27;;;;;;;14.89;63.94;96378.94;5029116;28;20228;-69
2023/05/24 00:24:11;;;;;;;7.30;6.60;;;;;;;15.02;63.70;96382.50;5028714;28;20557;-69
2023/05/24 00:26:36;;;;;;;6.60;6.00;;;;;;;14.98;63.62;96378.38;5029048;28;20517;-68
2023/05/24 00:29:02;;;;;;;6.67;6.03;;;;;;;14.80;63.89;96382.97;5044267;28;20237;-67
2023/05/24 00:31:27;;;;;;;7.70;6.90;;;;;;;14.98;63.19;96381.00;5029215;28;20175;-69
2023/05/24 00:33:53;;;;;;;7.20;6.50;;;;;;;15.12;62.53;96383.66;5028736;28;20286;-69
2023/05/24 00:36:18;;;;;;;7.70;6.37;;;;;;;14.83;63.65;96380.13;5028862;28;20269;-68
2023/05/24 00:38:43;;;;;;;15.27;6.33;;;;;;;14.97;63.36;96376.66;5028711;28;20211;-69
2023/05/24 00:41:10;;;;;;;6.77;6.07;;;;;;;14.94;63.58;96376.84;5028776;28;20175;-69
2023/05/24 00:43:36;;;;;;;6.87;6.17;;;;;;;14.73;63.88;96371.94;5028491;28;20672;-69
2023/05/24 00:46:21;;;;;;;7.87;6.60;;;;;;;14.89;63.49;96371.00;5028641;28;20498;-68
2023/05/24 00:48:49;;;;;;;11.10;6.40;;;;;;;14.83;63.58;96372.22;5024288;28;20183;-68
2023/05/24 00:51:15;;;;;;;8.80;6.50;;;;;;;14.73;63.52;96373.72;5008985;28;20416;-67
2023/05/24 00:53:41;;;;;;;9.60;6.50;;;;;;;14.58;64.28;96381.63;5008519;28;20956;-69
2023/05/24 00:56:07;;;;;;;7.17;6.57;;;;;;;14.28;65.40;96379.00;5008778;28;20725;-68
2023/05/24 00:58:33;;;;;;;10.27;6.50;;;;;;;14.26;65.17;96377.38;5008806;28;20407;-68
2023/05/24 01:01:00;;;;;;;6.83;5.80;;;;;;;14.46;64.51;96376.22;5008839;28;20481;-68
2023/05/24 01:03:30;;;;;;;8.03;6.30;;;;;;;14.55;64.42;96378.31;5008521;28;20234;-68
2023/05/24 01:05:57;;;;;;;9.17;7.30;;;;;;;14.43;64.57;96371.94;5008652;28;20427;-68
2023/05/24 01:08:58;;;;;;;7.60;6.90;;;;;;;14.52;64.22;96381.13;5008416;28;20417;-69
2023/05/24 01:11:29;;;;;;;7.17;6.40;;;;;;;14.46;64.05;96377.06;5009296;28;20423;-68
2023/05/24 01:14:20;;;;;;;7.87;6.60;;;;;;;14.42;64.50;96374.69;5008123;28;20407;-69
2023/05/24 01:16:52;;;;;;;9.40;6.67;;;;;;;14.33;63.97;96373.44;5008295;28;20543;-68
2023/05/24 01:19:33;;;;;;;8.27;7.40;;;;;;;14.49;64.16;96384.78;5008849;28;20423;-68
2023/05/24 01:22:26;;;;;;;8.00;7.20;;;;;;;14.19;64.23;96375.09;5008720;28;20410;-68
2023/05/24 01:24:57;;;;;;;7.80;6.67;;;;;;;14.04;65.01;96378.66;5007885;28;20412;-70
2023/05/24 01:27:24;;;;;;;8.00;7.20;;;;;;;14.15;64.77;96378.88;5008423;28;20502;-69
2023/05/24 01:29:52;;;;;;;7.57;6.83;;;;;;;14.16;64.11;96380.56;5007351;28;20466;-69
2023/05/24 01:32:20;;;;;;;8.23;7.23;;;;;;;13.92;65.35;96385.47;5008207;28;20832;-68
2023/05/24 01:34:46;;;;;;;10.00;7.40;;;;;;;13.85;65.43;96388.56;5007463;28;20478;-68
2023/05/24 01:37:11;;;;;;;8.20;6.63;;;;;;;13.67;65.60;96385.16;5008001;28;20426;-69
2023/05/24 01:39:37;;;;;;;7.53;6.47;;;;;;;13.73;65.64;96385.69;5007934;28;20229;-69
2023/05/24 01:42:17;;;;;;;8.63;7.50;;;;;;;14.03;64.11;96391.91;5007817;28;20168;-69
2023/05/24 01:45:05;;;;;;;8.53;7.00;;;;;;;13.76;64.97;96387.28;5007344;28;20537;-68
2023/05/24 01:47:50;;;;;;;7.47;6.20;;;;;;;13.90;62.17;96389.16;5007671;28;20481;-69
2023/05/24 01:50:27;;;;;;;12.70;7.03;;;;;;;13.61;63.18;96383.75;5023909;28;20425;-70
2023/05/24 01:52:56;;;;;;;9.23;6.20;;;;;;;13.99;62.64;96380.72;5027145;28;20402;-68
2023/05/24 01:55:25;;;;;;;9.57;6.20;;;;;;;14.17;61.13;96379.66;5026968;28;20458;-69
2023/05/24 01:57:57;;;;;;;6.13;5.53;;;;;;;14.07;60.24;96385.53;5027433;28;20402;-69
2023/05/24 02:00:24;;;;;;;7.40;5.80;;;;;;;14.03;60.37;96382.25;5027212;28;20417;-68
2023/05/24 02:02:50;;;;;;;8.50;5.20;;;;;;;14.10;59.91;96382.72;5027401;28;20445;-69
2023/05/24 02:05:15;;;;;;;6.67;5.50;;;;;;;13.86;60.70;96377.06;5026972;28;20422;-68
2023/05/24 02:07:41;;;;;;;7.03;6.17;;;;;;;14.04;59.45;96378.66;5027268;28;20479;-68
2023/05/24 02:10:07;;;;;;;7.17;5.47;;;;;;;13.87;60.17;96376.16;5027320;28;20179;-68
2023/05/24 02:12:32;;;;;;;6.13;4.93;;;;;;;13.92;59.71;96382.00;5027320;28;20176;-68
2023/05/24 02:14:59;;;;;;;7.47;6.43;;;;;;;14.06;59.32;96381.22;5026606;28;20402;-67
2023/05/24 02:17:25;;;;;;;10.13;6.13;;;;;;;13.86;59.51;96388.47;5027137;28;20171;-68
2023/05/24 02:19:51;;;;;;;7.63;6.03;;;;;;;13.78;60.13;96385.41;5027115;28;20413;-68
2023/05/24 02:22:16;;;;;;;7.47;5.40;;;;;;;13.46;61.33;96395.13;5027005;28;20410;-69
2023/05/24 02:24:42;;;;;;;8.47;6.23;;;;;;;13.52;61.19;96390.38;5026836;28;20172;-69
2023/05/24 02:27:08;;;;;;;9.73;6.10;;;;;;;13.50;61.50;96392.25;5026896;28;20175;-69
2023/05/24 02:29:33;;;;;;;10.40;5.67;;;;;;;13.65;61.12;96389.69;5027065;28;20171;-68
2023/05/24 02:31:58;;;;;;;6.77;5.50;;;;;;;13.46;61.25;96395.97;5026821;28;20179;-68
2023/05/24 02:34:24;;;;;;;10.77;6.20;;;;;;;13.48;62.08;96395.91;5026562;28;20171;-68
2023/05/24 02:36:50;;;;;;;6.60;5.60;;;;;;;13.43;62.52;96400.59;5026780;28;20711;-69
2023/05/24 02:39:16;;;;;;;7.77;5.60;;;;;;;13.32;62.17;96401.16;5027013;28;20304;-69
2023/05/24 02:41:42;;;;;;;8.10;6.13;;;;;;;13.17;62.83;96397.56;5028731;28;20596;-69
2023/05/24 02:44:07;;;;;;;8.07;5.87;;;;;;;13.39;59.76;96393.78;5030872;28;20190;-69
2023/05/24 02:46:33;;;;;;;8.00;5.93;;;;;;;13.34;58.82;96397.50;5030722;28;20203;-68
2023/05/24 02:48:58;;;;;;;7.13;5.80;;;;;;;13.14;60.29;96392.47;5025055;28;20263;-69
2023/05/24 02:51:24;;;;;;;6.33;4.93;;;;;;;12.96;59.96;96386.38;5011145;28;20565;-69
2023/05/24 02:53:49;;;;;;;9.67;5.77;;;;;;;13.00;60.62;96393.19;5010726;28;20537;-69
2023/05/24 02:56:18;;;;;;;5.67;5.17;;;;;;;12.96;59.81;96391.66;5010955;28;20204;-69
2023/05/24 02:58:43;;;;;;;7.00;5.30;;;;;;;12.89;59.35;96391.13;5010998;28;20176;-69
2023/05/24 03:01:12;;;;;;;7.10;6.23;;;;;;;12.77;59.70;96389.16;5010975;28;20407;-70
2023/05/24 03:03:38;;;;;;;10.50;5.27;;;;;;;12.86;59.82;96385.19;5011037;28;20172;-69
2023/05/24 03:06:07;;;;;;;11.20;6.80;;;;;;;12.90;60.04;96382.31;5011087;28;20427;-68
2023/05/24 03:08:33;;;;;;;13.43;5.33;;;;;;;12.77;60.46;96389.16;5011104;28;20410;-67
2023/05/24 03:10:58;;;;;;;8.03;5.57;;;;;;;12.76;60.25;96379.56;5010866;28;20439;-69
2023/05/24 03:13:24;;;;;;;7.90;5.60;;;;;;;12.77;60.47;96383.03;5010548;28;20172;-69
2023/05/24 03:15:49;;;;;;;12.10;6.43;;;;;;;12.81;60.02;96385.44;5010774;28;20196;-68
2023/05/24 03:18:14;;;;;;;19.77;10.63;;;;;;;12.79;59.86;96382.03;5010626;28;20164;-68
2023/05/24 03:20:40;;;;;;;11.40;5.80;;;;;;;12.79;60.10;96383.81;5010506;28;20172;-67
2023/05/24 03:23:06;;;;;;;8.07;6.13;;;;;;;12.49;60.77;96387.94;5010728;28;20176;-68
2023/05/24 03:25:31;;;;;;;8.30;6.10;;;;;;;12.49;60.62;96387.09;5010272;28;20192;-67
2023/05/24 03:27:57;;;;;;;7.93;6.93;;;;;;;12.39;60.58;96391.16;5010683;28;20208;-68
2023/05/24 03:30:22;;;;;;;7.00;5.70;;;;;;;12.62;60.27;96382.06;5010893;28;20172;-69
2023/05/24 03:32:47;;;;;;;9.33;5.60;;;;;;;12.56;60.29;96377.94;5013678;28;20955;-69
2023/05/24 03:35:13;;;;;;;11.70;6.60;;;;;;;12.37;60.56;96385.94;5013464;28;20227;-69
2023/05/24 03:37:39;;;;;;;9.10;5.30;;;;;;;12.69;58.29;96379.03;5013891;28;20173;-68
2023/05/24 03:40:05;;;;;;;8.13;5.80;;;;;;;12.37;59.07;96383.31;5013726;28;20175;-67
2023/05/24 03:42:31;;;;;;;11.60;6.00;;;;;;;12.13;60.16;96385.41;5010535;28;20219;-68
2023/05/24 03:44:56;;;;;;;12.53;5.80;;;;;;;12.40;59.00;96383.19;5009785;28;20435;-69
2023/05/24 03:47:21;;;;;;;8.17;5.50;;;;;;;12.23;60.23;96381.38;5010379;28;20188;-68
2023/05/24 03:49:47;;;;;;;10.10;6.07;;;;;;;12.23;59.59;96370.88;5022477;28;20682;-68
2023/05/24 03:52:12;;;;;;;6.93;5.37;;;;;;;12.15;60.09;96377.47;5029489;28;20191;-69
2023/05/24 03:54:38;;;;;;;7.87;5.80;;;;;;;12.16;60.93;96381.78;5029214;28;20179;-69
2023/05/24 03:57:03;;;;;;;10.63;5.50;;;;;;;12.40;59.64;96388.44;5029806;28;20203;-68
2023/05/24 03:59:29;;;;;;;14.50;6.87;;;;;;;12.73;58.75;96395.50;5029733;28;20179;-68
2023/05/24 04:01:55;;;;;;;12.10;6.10;;;;;;;12.75;59.28;96396.28;5030003;28;20198;-70
2023/05/24 04:04:21;;;;;;;11.27;6.47;;;;;;;12.71;59.01;96398.22;5029693;28;20740;-69
2023/05/24 04:06:46;;;;;;;8.57;5.93;;;;;;;12.57;59.12;96405.16;5030374;28;20550;-70
2023/05/24 04:09:12;;;;;;;9.90;6.37;;;;;;;12.53;58.67;96404.44;5029911;28;20645;-68
2023/05/24 04:11:38;;;;;;;9.33;5.87;;;;;;;12.50;58.83;96409.88;5029748;28;20525;-70
2023/05/24 04:14:03;;;;;;;19.23;6.23;;;;;;;12.61;58.54;96410.16;5029233;28;20238;-70
2023/05/24 04:16:32;;;;;;;21.33;6.60;;;;;;;12.56;58.16;96408.69;5029288;28;20699;-68
2023/05/24 04:18:59;;;;;;;13.50;7.30;;;;;;;12.53;58.53;96399.19;5022573;28;20234;-70
2023/05/24 04:21:25;;;;;;;8.70;5.40;;;;;;;12.57;58.12;96394.63;5027244;28;20489;-68
2023/05/24 04:23:51;;;;;;;11.20;7.23;;;;;;;12.11;60.27;96404.84;5028065;28;20427;-71
2023/05/24 04:26:16;;;;;;;16.70;6.80;;;;;;;12.32;60.03;96401.13;5029219;28;20199;-69
2023/05/24 04:28:42;;;;;;;12.70;6.30;;;;;;;11.95;60.88;96400.34;5030079;28;20258;-69
2023/05/24 04:31:08;;;;;;;11.90;6.37;;;;;;;12.21;60.47;96406.94;5029672;28;20254;-67
2023/05/24 04:33:35;;;;;;;12.57;6.83;;;;;;;12.36;59.36;96413.22;5027940;28;20176;-71
2023/05/24 04:36:00;;;;;;;11.70;6.27;;;;;;;12.53;59.62;96414.97;5026057;28;20919;-70
2023/05/24 04:38:31;;;;;;;11.00;5.73;;;;;;;12.73;58.18;96411.28;5027966;28;20436;-68
2023/05/24 04:40:59;;;;;;;18.23;6.27;;;;;;;12.49;59.04;96416.91;5028222;28;20230;-70
2023/05/24 04:43:25;;;;;;;9.50;7.17;;;;;;;12.50;58.28;96418.63;5029625;28;20437;-70
2023/05/24 04:45:53;;;;;;;12.07;5.97;;;;;;;12.64;58.76;96424.97;5028346;28;20849;-70
2023/05/24 04:48:23;;;;;;;10.10;6.80;;;;;;;12.46;58.67;96424.13;5031142;28;20182;-71
2023/05/24 04:50:52;;;;;;;13.60;7.03;;;;;;;12.45;57.64;96417.16;5031529;28;20829;-70
2023/05/24 04:53:18;;;;;;;16.33;6.23;;;;;;;12.25;58.22;96426.06;5030067;28;20429;-71
2023/05/24 04:55:44;;;;;;;12.90;6.47;;;;;;;12.29;58.46;96427.59;5027385;28;20527;-69
2023/05/24 04:58:09;;;;;;;10.50;5.90;;;;;;;12.39;57.32;96423.56;5028278;28;20430;-68
2023/05/24 05:00:35;;;;;;;16.23;6.53;;;;;;;12.53;57.16;96429.94;5025138;28;20176;-71
2023/05/24 05:03:00;;;;;;;11.70;6.20;;;;;;;12.71;56.79;96429.81;5025262;28;20180;-70
2023/05/24 05:05:26;;;;;;;11.53;5.43;;;;;;;12.53;56.90;96422.03;5016665;28;20196;-69
2023/05/24 05:07:51;;;;;;;10.73;6.33;;;;;;;12.31;57.64;96425.75;5022608;28;20267;-73
2023/05/24 05:10:17;;;;;;;8.50;5.70;;;;;;;12.32;57.19;96427.44;5025291;28;20237;-70
2023/05/24 05:12:43;;;;;;;10.00;5.67;;;;;;;12.29;58.04;96427.59;5025255;28;20171;-67
2023/05/24 05:15:09;;;;;;;11.77;5.60;;;;;;;12.57;56.60;96426.22;5024395;28;20347;-66
2023/05/24 05:17:35;;;;;;;6.87;5.33;;;;;;;12.71;56.32;96419.28;5025091;28;21004;-73
2023/05/24 05:20:01;;;;;;;9.27;5.63;;;;;;;12.54;55.96;96419.28;5025093;28;20431;-67
2023/05/24 05:22:26;;;;;;;11.40;6.80;;;;;;;12.38;57.56;96415.75;5025672;28;20261;-71
2023/05/24 05:24:51;;;;;;;9.53;6.10;;;;;;;12.31;56.34;96415.22;5025472;28;20308;-70
2023/05/24 05:27:17;;;;;;;15.00;6.40;;;;;;;12.47;57.01;96417.91;5025802;28;20171;-68
2023/05/24 05:29:43;;;;;;;9.13;7.80;;;;;;;12.37;56.76;96422.78;5025653;28;20647;-71
2023/05/24 05:32:08;;;;;;;13.93;7.33;;;;;;;12.38;56.66;96414.00;5025478;28;20709;-68
2023/05/24 05:34:34;;;;;;;12.40;6.70;;;;;;;12.56;56.34;96416.59;5024825;28;20178;-70
2023/05/24 05:36:59;;;;;;;13.80;7.13;;;;;;;12.30;57.09;96410.88;5027641;28;20207;-68
2023/05/24 05:39:25;;;;;;;7.07;5.43;;;;;;;12.45;57.00;96417.16;5026554;28;20190;-70
2023/05/24 05:41:50;;;;;;;10.53;5.90;;;;;;;12.46;56.80;96406.53;5026154;28;20183;-71
2023/05/24 05:44:15;;;;;;;11.07;7.10;;;;;;;12.48;55.88;96409.09;5026164;28;20174;-69
2023/05/24 05:46:44;;;;;;;10.87;5.63;;;;;;;12.47;56.13;96410.00;5026048;28;20195;-71
2023/05/24 05:49:11;;;;;;;13.30;5.77;;;;;;;12.37;56.71;96414.91;5018687;28;20172;-71
2023/05/24 05:51:37;;;;;;;11.70;6.30;;;;;;;12.33;57.23;96412.50;5006925;28;20910;-71
2023/05/24 05:54:03;;;;;;;11.70;6.57;;;;;;;12.36;57.45;96426.38;5012434;28;20447;-70
2023/05/24 05:56:29;;;;;;;12.57;6.20;;;;;;;12.02;58.29;96414.03;5019439;28;20466;-70
2023/05/24 05:58:54;;;;;;;9.10;6.60;;;;;;;12.23;57.32;96422.63;5019826;28;20466;-70
2023/05/24 06:01:20;;;;;;;12.90;6.27;;;;;;;12.11;58.01;96425.88;5021298;28;20180;-69
2023/05/24 06:03:45;;;;;;;8.50;4.50;;;;;;;12.47;56.79;96418.78;5018699;28;20177;-69
2023/05/24 06:06:11;;;;;;;8.33;6.40;;;;;;;12.56;56.89;96421.84;5027356;28;20261;-69
2023/05/24 06:08:36;;;;;;;9.90;6.57;;;;;;;12.41;56.84;96416.44;5008355;28;20183;-71
2023/05/24 06:11:02;;;;;;;9.80;6.30;;;;;;;12.63;55.55;96425.88;5016562;28;20559;-68
2023/05/24 06:13:27;;;;;;;12.53;6.47;;;;;;;12.42;56.55;96420.78;5024744;28;20191;-72
2023/05/24 06:15:54;;;;;;;12.33;6.40;;;;;;;12.32;58.11;96427.44;5024125;28;20199;-71
2023/05/24 06:18:19;;;;;;;13.60;7.00;;;;;;;12.34;57.65;96425.59;5025024;28;20254;-71
2023/05/24 06:20:46;;;;;;;15.87;7.10;;;;;;;12.31;57.55;96433.66;5007255;28;20490;-72
2023/05/24 06:23:11;;;;;;;16.17;7.03;;;;;;;12.74;56.64;96427.97;5007593;28;20188;-70
2023/05/24 06:25:37;;;;;;;13.43;6.20;;;;;;;12.62;56.61;96418.94;5007329;28;20427;-69
2023/05/24 06:28:03;;;;;;;9.53;5.90;;;;;;;13.02;56.39;96416.84;5008954;28;20546;-70
2023/05/24 06:30:28;;;;;;;9.20;6.43;;;;;;;12.89;56.92;96416.63;5018321;28;20545;-68
2023/05/24 06:32:55;;;;;;;12.43;7.70;;;;;;;12.62;57.38;96426.81;5007351;28;20471;-70
2023/05/24 06:35:21;;;;;;;11.20;6.20;;;;;;;12.64;57.72;96430.22;5022011;28;20245;-71
2023/05/24 06:37:46;;;;;;;8.67;5.37;;;;;;;12.57;57.61;96436.75;5026927;28;20438;-71
2023/05/24 06:40:12;;;;;;;9.10;5.60;;;;;;;12.62;57.23;96432.94;5026988;28;20446;-71
2023/05/24 06:42:38;;;;;;;9.40;5.93;;;;;;;12.55;57.34;96431.53;5027308;28;20168;-69
2023/05/24 06:45:04;;;;;;;9.30;6.13;;;;;;;12.40;57.44;96438.44;5026942;28;20172;-71
2023/05/24 06:47:30;;;;;;;8.57;6.40;;;;;;;12.58;57.81;96444.53;5011904;28;20433;-72
2023/05/24 06:49:55;;;;;;;9.50;6.53;;;;;;;12.70;56.54;96443.06;5020673;28;20410;-69
2023/05/24 06:52:21;;;;;;;14.23;6.47;;;;;;;12.27;57.93;96446.09;5026769;28;20644;-70
2023/05/24 06:54:48;;;;;;;13.23;8.00;;;;;;;12.39;58.39;96443.78;5026288;28;20177;-70
2023/05/24 06:57:13;;;;;;;18.97;7.30;;;;;;;12.36;58.58;96443.94;5026721;28;20198;-70
2023/05/24 06:59:38;;;;;;;13.40;6.30;;;;;;;12.57;57.89;96447.28;5026420;28;20713;-69
2023/05/24 07:02:04;;;;;;;14.07;6.10;;;;;;;12.45;58.04;96451.38;5026631;28;20268;-69
2023/05/24 07:04:29;;;;;;;11.50;6.97;;;;;;;12.63;57.50;96444.31;5026382;28;20580;-69
2023/05/24 07:06:56;;;;;;;17.83;8.20;;;;;;;13.00;56.27;96450.31;5026523;28;20586;-70
2023/05/24 07:09:21;;;;;;;7.10;5.93;;;;;;;12.83;56.85;96451.19;5026371;28;20171;-71
2023/05/24 07:11:47;;;;;;;19.83;9.50;;;;;;;12.56;57.60;96443.75;5026545;28;20473;-70
2023/05/24 07:14:12;;;;;;;14.30;7.00;;;;;;;12.47;57.79;96450.38;5026111;28;20183;-69
2023/05/24 07:16:38;;;;;;;18.50;7.10;;;;;;;12.71;57.41;96450.03;5041650;28;20261;-69
2023/05/24 07:19:03;;;;;;;17.33;6.97;;;;;;;12.81;56.27;96445.16;5026665;28;20669;-69
2023/05/24 07:21:29;;;;;;;14.60;6.40;;;;;;;12.96;56.67;96454.03;5026380;28;20779;-71
2023/05/24 07:23:54;;;;;;;11.17;7.00;;;;;;;13.09;55.30;96452.47;5011874;28;20255;-69
2023/05/24 07:26:20;;;;;;;10.27;7.20;;;;;;;13.01;55.97;96459.91;5006587;28;20279;-69
2023/05/24 07:28:46;;;;;;;10.23;7.07;;;;;;;13.43;55.44;96459.41;5008644;28;20789;-69
2023/05/24 07:31:12;;;;;;;18.40;7.20;;;;;;;13.62;54.00;96458.41;5010111;28;20525;-69
2023/05/24 07:33:37;;;;;;;14.00;7.43;;;;;;;13.15;55.54;96462.66;5017767;28;20186;-70
2023/05/24 07:36:07;;;;;;;8.87;6.10;;;;;;;13.20;55.41;96467.69;5035854;28;20212;-71
2023/05/24 07:38:33;;;;;;;17.30;7.50;;;;;;;13.38;55.11;96465.88;5021407;28;20175;-69
2023/05/24 07:41:00;;;;;;;11.40;7.10;;;;;;;12.98;56.33;96462.69;5029543;28;20406;-71
2023/05/24 07:43:26;;;;;;;26.47;8.60;;;;;;;13.39;55.94;96451.75;5029829;28;20422;-70
2023/05/24 07:45:52;;;;;;;13.63;7.33;;;;;;;13.67;55.18;96457.22;5012940;28;20446;-70
2023/05/24 07:48:19;;;;;;;12.83;8.00;;;;;;;13.73;54.11;96459.53;5024705;28;20729;-70
2023/05/24 07:50:47;;;;;;;15.73;9.30;;;;;;;13.76;54.24;96458.50;5029879;28;20496;-70
2023/05/24 07:53:14;;;;;;;20.97;8.20;;;;;;;13.84;54.55;96452.78;5038268;28;20425;-70
2023/05/24 07:55:39;;;;;;;19.33;7.00;;;;;;;13.74;54.22;96463.84;5039924;28;20458;-70
2023/05/24 07:58:05;;;;;;;9.47;6.37;;;;;;;13.64;54.30;96453.91;5037394;28;20488;-70
2023/05/24 08:00:31;;;;;;;10.93;6.37;;;;;;;13.36;55.71;96459.84;5041924;28;20175;-69
2023/05/24 08:02:57;;;;;;;9.67;6.80;;;;;;;13.49;56.01;96451.19;5039075;28;20174;-68
2023/05/24 08:05:23;;;;;;;11.40;6.90;;;;;;;13.94;54.34;96454.84;5018856;28;20442;-69
2023/05/24 08:07:48;;;;;;;9.10;6.57;;;;;;;14.20;52.43;96449.88;5035867;28;20172;-70
2023/05/24 08:10:14;;;;;;;12.03;7.30;;;;;;;14.22;51.99;96442.72;5037733;28;21053;-69
2023/05/24 08:12:40;;;;;;;11.53;7.37;;;;;;;14.03;52.04;96444.69;5038928;28;20223;-70
2023/05/24 08:15:06;;;;;;;9.83;6.63;;;;;;;13.36;54.39;96460.69;5042489;28;20575;-69
2023/05/24 08:17:32;;;;;;;20.73;7.30;;;;;;;13.17;55.38;96466.06;5061872;28;20411;-68
2023/05/24 08:19:57;;;;;;;13.87;6.13;;;;;;;13.29;54.98;96460.16;5058467;28;20174;-69
2023/05/24 08:22:22;;;;;;;12.97;7.00;;;;;;;13.41;55.20;96466.56;5056370;28;20506;-69
2023/05/24 08:24:48;;;;;;;14.20;7.13;;;;;;;13.57;54.54;96466.59;5045190;28;20727;-70
2023/05/24 08:27:13;;;;;;;12.20;7.17;;;;;;;13.67;54.41;96469.56;5022442;28;20172;-70
2023/05/24 08:29:39;;;;;;;15.60;7.40;;;;;;;13.79;53.80;96471.50;5029866;28;20636;-70
2023/05/24 08:32:08;;;;;;;12.63;7.07;;;;;;;13.98;53.16;96473.97;5029553;28;20179;-70
2023/05/24 08:34:35;;;;;;;14.03;7.07;;;;;;;14.19;52.42;96466.63;5010689;28;20506;-70
2023/05/24 08:37:01;;;;;;;10.70;6.87;;;;;;;14.26;53.31;96475.91;5008804;28;20465;-70
2023/05/24 08:39:27;;;;;;;15.73;7.03;;;;;;;14.20;53.28;96481.53;5025113;28;20480;-70
2023/05/24 08:41:53;;;;;;;10.83;7.60;;;;;;;13.61;54.54;96475.19;5011593;28;20412;-71
2023/05/24 08:44:21;;;;;;;9.67;6.57;;;;;;;13.70;54.68;96475.53;5012901;28;20172;-70
2023/05/24 08:46:47;;;;;;;14.93;8.80;;;;;;;14.06;53.69;96478.84;5048146;28;20450;-70
2023/05/24 08:49:15;;;;;;;21.57;7.17;;;;;;;14.26;53.47;96475.06;5027182;28;20417;-70
2023/05/24 08:51:41;;;;;;;12.93;7.30;;;;;;;14.54;52.47;96482.25;5028630;28;20502;-70
2023/05/24 08:54:09;;;;;;;33.30;9.27;;;;;;;14.32;53.42;96469.44;5029139;28;20414;-70
2023/05/24 08:56:35;;;;;;;34.77;11.57;;;;;;;14.45;53.12;96473.03;5028516;28;20568;-70
2023/05/24 08:59:00;;;;;;;13.33;8.70;;;;;;;14.49;52.44;96477.22;5028733;28;20414;-70
2023/05/24 09:01:26;;;;;;;20.30;7.90;;;;;;;14.25;52.87;96474.22;5028836;28;20912;-70
2023/05/24 09:03:53;;;;;;;8.73;6.80;;;;;;;14.12;54.08;96484.59;5028165;28;20180;-70
2023/05/24 09:06:18;;;;;;;18.07;8.63;;;;;;;14.24;52.78;96474.28;5028356;28;20191;-70
2023/05/24 09:08:45;;;;;;;9.53;8.50;;;;;;;14.29;53.31;96473.09;5028398;28;20428;-69
2023/05/24 09:11:11;;;;;;;9.60;6.60;;;;;;;14.07;53.48;96484.00;5028238;28;20862;-71
2023/05/24 09:13:36;;;;;;;14.13;7.67;;;;;;;14.17;53.44;96477.28;5027823;28;20487;-71
2023/05/24 09:16:04;;;;;;;12.70;6.10;;;;;;;14.39;51.95;96476.91;5027955;28;20494;-70
2023/05/24 09:18:30;;;;;;;13.57;6.00;;;;;;;14.39;52.69;96471.63;5028375;28;20888;-71
2023/05/24 09:20:55;;;;;;;12.70;6.60;;;;;;;14.35;52.23;96471.88;5024391;28;20422;-69
2023/05/24 09:23:21;;;;;;;13.93;6.77;;;;;;;14.78;51.00;96479.97;5008514;28;20190;-69
2023/05/24 09:25:47;;;;;;;13.47;6.13;;;;;;;14.48;52.04;96479.94;5008376;28;21155;-69
2023/05/24 09:28:17;;;;;;;16.70;6.50;;;;;;;13.88;52.89;96486.00;5008210;28;20503;-70
2023/05/24 09:30:45;;;;;;;12.60;6.70;;;;;;;13.70;53.48;96483.44;5008225;28;20583;-71
2023/05/24 09:33:11;;;;;;;10.37;6.60;;;;;;;13.89;53.43;96478.00;5008363;28;20418;-71
2023/05/24 09:35:41;;;;;;;14.67;6.40;;;;;;;13.97;52.07;96480.19;5007779;28;20505;-69
2023/05/24 09:38:17;;;;;;;18.23;7.20;;;;;;;14.05;52.91;96483.25;5008325;28;20423;-71
2023/05/24 09:40:43;;;;;;;13.53;7.07;;;;;;;14.08;52.66;96484.84;5008102;28;20419;-70
2023/05/24 09:43:08;;;;;;;13.10;6.23;;;;;;;13.97;52.27;96485.47;5008231;28;20962;-70
2023/05/24 09:45:42;;;;;;;8.90;7.03;;;;;;;13.96;52.32;96487.28;5007974;28;20510;-71
2023/05/24 09:48:12;;;;;;;9.67;6.93;;;;;;;14.26;51.16;96488.25;5007782;28;20203;-70
2023/05/24 09:50:37;;;;;;;13.50;5.80;;;;;;;14.00;52.35;96490.56;5026458;28;20419;-70
2023/05/24 09:53:03;;;;;;;10.83;6.70;;;;;;;14.26;51.56;96489.09;5027461;28;20437;-70
2023/05/24 09:55:28;;;;;;;9.53;6.90;;;;;;;14.20;52.15;96486.81;5026970;28;20318;-70
2023/05/24 09:58:07;;;;;;;13.53;6.17;;;;;;;14.38;50.91;96490.19;5027811;28;20176;-69
2023/05/24 10:00:35;;;;;;;9.77;6.10;;;;;;;14.19;51.31;96488.59;5027587;28;20265;-70
2023/05/24 10:03:06;;;;;;;11.03;6.70;;;;;;;14.09;52.28;96489.22;5022609;28;20436;-71
2023/05/24 10:05:31;;;;;;;9.10;7.10;;;;;;;13.75;51.95;96478.75;5016427;28;20525;-70
2023/05/24 10:07:58;;;;;;;11.50;7.27;;;;;;;13.74;51.90;96479.69;5008471;28;20583;-69
2023/05/24 10:10:31;;;;;;;14.33;6.63;;;;;;;13.90;52.09;96481.47;5018859;28;20185;-70
2023/05/24 10:12:59;;;;;;;11.67;7.17;;;;;;;13.90;52.62;96494.66;5025530;28;20501;-70
2023/05/24 10:15:26;;;;;;;9.90;6.53;;;;;;;13.85;52.73;96497.56;5018793;28;20467;-69
2023/05/24 10:17:56;;;;;;;10.50;6.60;;;;;;;13.63;53.17;96491.75;5026444;28;20504;-70
2023/05/24 10:20:23;;;;;;;11.30;7.53;;;;;;;13.67;53.73;96493.28;5019481;28;20423;-70
2023/05/24 10:22:56;;;;;;;34.10;8.10;;;;;;;13.70;52.54;96491.34;5015365;28;20461;-70
2023/05/24 10:25:26;;;;;;;10.63;6.83;;;;;;;13.46;53.12;96490.03;5021180;28;21114;-69
2023/05/24 10:27:56;;;;;;;13.00;6.97;;;;;;;13.58;53.54;96493.78;5024150;28;20410;-70
2023/05/24 10:30:32;;;;;;;10.53;7.47;;;;;;;13.83;52.45;96485.41;5010564;28;20434;-69
2023/05/24 10:33:00;;;;;;;13.27;7.27;;;;;;;13.82;52.58;96489.84;5018580;28;20438;-70
2023/05/24 10:35:26;;;;;;;11.23;6.40;;;;;;;13.88;52.90;96489.47;5017822;28;20451;-70
2023/05/24 10:37:53;;;;;;;16.80;7.77;;;;;;;14.09;52.19;96490.06;5021089;28;20553;-70
2023/05/24 10:40:20;;;;;;;10.90;7.13;;;;;;;13.84;50.99;96487.97;5025387;28;20430;-71
2023/05/24 10:42:46;;;;;;;15.73;6.80;;;;;;;14.28;50.25;96483.75;5022396;28;20852;-71
2023/05/24 10:45:24;;;;;;;11.93;6.87;;;;;;;14.49;49.04;96482.50;5025153;28;20530;-69
2023/05/24 10:47:49;;;;;;;12.53;7.00;;;;;;;14.66;49.00;96475.41;5026071;28;20245;-70
2023/05/24 10:50:17;;;;;;;11.40;8.20;;;;;;;14.52;49.30;96477.03;5020909;28;20426;-70
2023/05/24 10:52:42;;;;;;;14.40;6.70;;;;;;;14.61;48.92;96471.25;5011110;28;20176;-70
2023/05/24 10:55:09;;;;;;;15.13;6.80;;;;;;;14.56;49.23;96481.22;5016843;28;20518;-69
2023/05/24 10:57:36;;;;;;;16.70;6.93;;;;;;;14.39;49.57;96476.06;5022113;28;20175;-70
2023/05/24 11:00:20;;;;;;;12.57;7.27;;;;;;;14.72;48.83;96481.19;5021200;28;20411;-71
2023/05/24 11:02:48;;;;;;;8.10;6.23;;;;;;;14.68;48.90;96478.81;5013598;28;20525;-70
2023/05/24 11:05:14;;;;;;;9.93;6.70;;;;;;;14.60;49.09;96474.84;5031272;28;20450;-69
2023/05/24 11:07:43;;;;;;;10.47;6.90;;;;;;;14.66;49.27;96472.78;5024739;28;20980;-71
2023/05/24 11:10:17;;;;;;;15.53;8.03;;;;;;;14.49;50.19;96471.09;5029986;28;20542;-70
2023/05/24 11:12:43;;;;;;;17.60;7.17;;;;;;;14.80;49.47;96459.59;5027174;28;20421;-70
2023/05/24 11:15:10;;;;;;;9.80;7.63;;;;;;;14.75;49.55;96461.66;5016917;28;20456;-70
2023/05/24 11:18:12;;;;;;;12.53;7.07;;;;;;;14.84;48.81;96460.28;5016962;28;20422;-71
2023/05/24 11:20:45;;;;;;;8.03;6.40;;;;;;;14.95;48.59;96456.03;5028354;28;20401;-70
2023/05/24 11:23:11;;;;;;;14.30;7.20;;;;;;;14.48;49.60;96461.44;5029207;28;20453;-70
2023/05/24 11:25:37;;;;;;;13.67;8.70;;;;;;;14.43;49.91;96459.06;5029735;28;20480;-69
2023/05/24 11:28:06;;;;;;;29.87;9.13;;;;;;;14.48;49.36;96459.69;5031067;28;20213;-70
2023/05/24 11:30:31;;;;;;;16.27;7.10;;;;;;;14.34;49.66;96449.09;5027451;28;20469;-70